Time;durP1;ratioP1;P1;durP2;ratioP2;P2;SDS_P1;SDS_P2;PMS_P1;PMS_P2;Temp;Humidity;BMP_temperature;BMP_pressure;BME280_temperature;BME280_humidity;BME280_pressure;Samples;Min_cycle;Max_cycle;Signal;HPM_P1;HPM_P2
2023/03/25 00:04:43;;;;;;;27.20;14.20;;;;;;;;;;10382519;28;20275;-77
2023/03/25 00:09:43;;;;;;;30.27;15.00;;;;;;;;;;10382217;28;20476;-76
2023/03/25 00:14:53;;;;;;;31.63;14.17;;;;;;;;;;10382539;28;20561;-76
2023/03/25 00:19:56;;;;;;;25.42;14.02;;;;;;;;;;10383024;28;20026;-76
2023/03/25 00:24:57;;;;;;;26.02;14.30;;;;;;;;;;10380820;28;20037;-75
2023/03/25 00:29:57;;;;;;;29.92;14.70;;;;;;;;;;10382243;28;20026;-77
2023/03/25 00:34:58;;;;;;;31.60;13.40;;;;;;;;;;10380979;28;20036;-76
2023/03/25 00:39:59;;;;;;;33.17;13.98;;;;;;;;;;10379320;28;20059;-76
2023/03/25 00:44:59;;;;;;;39.00;14.32;;;;;;;;;;10379015;28;20420;-78
2023/03/25 00:50:02;;;;;;;34.03;14.32;;;;;;;;;;10381569;28;20030;-76
2023/03/25 00:55:03;;;;;;;29.00;13.15;;;;;;;;;;10382985;28;20048;-76
2023/03/25 01:00:06;;;;;;;22.75;11.85;;;;;;;;;;10381487;28;20603;-76
2023/03/25 01:05:09;;;;;;;27.80;12.60;;;;;;;;;;10393202;28;20392;-76
2023/03/25 01:10:10;;;;;;;23.73;12.40;;;;;;;;;;10382934;28;20031;-76
2023/03/25 01:15:11;;;;;;;20.92;11.93;;;;;;;;;;10386085;28;20044;-77
2023/03/25 01:20:11;;;;;;;24.27;10.93;;;;;;;;;;10380183;28;20395;-77
2023/03/25 01:25:12;;;;;;;19.45;11.48;;;;;;;;;;10378967;28;20029;-76
2023/03/25 01:30:12;;;;;;;23.05;10.85;;;;;;;;;;10380006;28;20392;-76
2023/03/25 01:35:13;;;;;;;24.30;10.70;;;;;;;;;;10380054;28;20522;-77
2023/03/25 01:40:17;;;;;;;20.33;10.55;;;;;;;;;;10379741;28;20048;-77
2023/03/25 01:45:19;;;;;;;21.00;10.00;;;;;;;;;;10379438;28;20022;-77
2023/03/25 01:50:20;;;;;;;26.75;12.30;;;;;;;;;;10378981;28;20449;-77
2023/03/25 01:55:22;;;;;;;21.38;9.75;;;;;;;;;;10379194;28;20034;-77
2023/03/25 02:00:25;;;;;;;21.13;10.63;;;;;;;;;;10386670;28;20484;-78
2023/03/25 02:05:29;;;;;;;23.75;10.38;;;;;;;;;;10379706;28;20052;-76
2023/03/25 02:10:33;;;;;;;21.17;11.65;;;;;;;;;;10369012;28;20030;-77
2023/03/25 02:15:39;;;;;;;27.77;10.57;;;;;;;;;;10386324;28;20037;-77
2023/03/25 02:21:07;;;;;;;23.63;10.93;;;;;;;;;;10387338;28;20417;-78
2023/03/25 02:26:28;;;;;;;18.45;9.55;;;;;;;;;;10384455;28;20143;-76
2023/03/25 02:31:47;;;;;;;22.15;9.88;;;;;;;;;;10384686;28;20037;-77
2023/03/25 02:36:48;;;;;;;18.38;10.48;;;;;;;;;;10368120;28;20725;-76
2023/03/25 02:41:51;;;;;;;19.67;10.13;;;;;;;;;;10384864;28;20440;-76
2023/03/25 02:46:53;;;;;;;18.17;9.93;;;;;;;;;;10385375;28;20404;-76
2023/03/25 02:52:03;;;;;;;18.58;11.00;;;;;;;;;;10384632;28;20041;-77
2023/03/25 02:57:06;;;;;;;25.48;11.15;;;;;;;;;;10386058;28;20045;-75
2023/03/25 03:02:08;;;;;;;25.85;10.77;;;;;;;;;;10381191;28;20026;-75
2023/03/25 03:07:08;;;;;;;19.70;9.85;;;;;;;;;;10377703;28;20401;-75
2023/03/25 03:12:08;;;;;;;25.52;10.88;;;;;;;;;;10368037;28;20036;-75
2023/03/25 03:17:18;;;;;;;23.45;11.15;;;;;;;;;;10383973;28;20112;-77
2023/03/25 03:22:25;;;;;;;20.35;11.35;;;;;;;;;;10385397;28;20752;-76
2023/03/25 03:27:35;;;;;;;25.25;12.80;;;;;;;;;;10384860;28;20465;-77
2023/03/25 03:32:42;;;;;;;31.00;11.07;;;;;;;;;;10362833;28;20033;-76
2023/03/25 03:37:44;;;;;;;23.70;10.57;;;;;;;;;;10383995;28;20029;-76
2023/03/25 03:42:51;;;;;;;24.90;10.27;;;;;;;;;;10383780;28;20102;-76
2023/03/25 03:47:54;;;;;;;23.52;10.93;;;;;;;;;;10383956;28;20025;-76
2023/03/25 03:52:56;;;;;;;28.80;10.95;;;;;;;;;;10383731;28;20033;-76
2023/03/25 03:58:01;;;;;;;28.98;11.00;;;;;;;;;;10372291;28;20103;-75
2023/03/25 04:03:07;;;;;;;23.58;11.20;;;;;;;;;;10396221;28;20033;-76
2023/03/25 04:08:11;;;;;;;21.40;10.88;;;;;;;;;;10382848;28;20033;-76
2023/03/25 04:13:13;;;;;;;31.42;11.68;;;;;;;;;;10364281;28;20022;-77
2023/03/25 04:18:13;;;;;;;21.73;10.57;;;;;;;;;;10381986;28;20510;-75
2023/03/25 04:23:16;;;;;;;22.08;11.32;;;;;;;;;;10380600;28;20461;-76
2023/03/25 04:28:17;;;;;;;31.17;11.75;;;;;;;;;;10382289;28;20033;-77
2023/03/25 04:33:19;;;;;;;28.55;13.80;;;;;;;;;;10380837;28;20049;-76
2023/03/25 04:38:20;;;;;;;30.60;15.88;;;;;;;;;;10379714;28;20497;-78
2023/03/25 04:43:21;;;;;;;25.33;13.60;;;;;;;;;;10381464;28;20028;-76
2023/03/25 04:48:24;;;;;;;33.30;15.20;;;;;;;;;;10379660;28;20527;-76
2023/03/25 04:53:25;;;;;;;27.92;13.63;;;;;;;;;;10378919;28;20033;-76
2023/03/25 04:58:27;;;;;;;32.20;14.63;;;;;;;;;;10380719;28;20033;-76
2023/03/25 05:03:28;;;;;;;27.40;13.15;;;;;;;;;;10377864;28;20113;-76
2023/03/25 05:08:30;;;;;;;32.80;13.45;;;;;;;;;;10385239;28;20033;-76
2023/03/25 05:13:30;;;;;;;31.92;15.23;;;;;;;;;;10379541;28;20068;-76
2023/03/25 05:18:30;;;;;;;40.35;14.52;;;;;;;;;;10378234;28;20137;-76
2023/03/25 05:23:31;;;;;;;28.30;13.95;;;;;;;;;;10359045;28;20496;-76
2023/03/25 05:28:31;;;;;;;32.63;12.87;;;;;;;;;;10379155;28;20396;-75
2023/03/25 05:33:31;;;;;;;27.48;13.20;;;;;;;;;;10378470;28;20049;-75
2023/03/25 05:38:32;;;;;;;22.63;12.18;;;;;;;;;;10379892;28;20021;-77
2023/03/25 05:43:34;;;;;;;21.77;11.13;;;;;;;;;;10379252;28;20029;-75
2023/03/25 05:48:34;;;;;;;22.58;10.38;;;;;;;;;;10380227;28;20033;-77
2023/03/25 05:53:36;;;;;;;23.17;11.25;;;;;;;;;;10379271;28;20033;-76
2023/03/25 05:58:37;;;;;;;33.35;10.68;;;;;;;;;;10379476;28;20028;-76
2023/03/25 06:03:37;;;;;;;23.45;10.80;;;;;;;;;;10374363;28;20044;-77
2023/03/25 06:08:37;;;;;;;25.60;10.73;;;;;;;;;;10368234;28;20425;-78
2023/03/25 06:13:38;;;;;;;21.17;9.18;;;;;;;;;;10372249;28;20037;-77
2023/03/25 06:18:40;;;;;;;23.65;9.00;;;;;;;;;;10366569;28;20099;-77
2023/03/25 06:23:41;;;;;;;20.33;8.20;;;;;;;;;;10377025;28;20469;-74
2023/03/25 06:28:41;;;;;;;17.30;8.30;;;;;;;;;;10371087;28;20113;-73
2023/03/25 06:33:43;;;;;;;19.10;9.25;;;;;;;;;;10365360;28;20041;-71
2023/03/25 06:38:47;;;;;;;19.58;7.72;;;;;;;;;;10367140;28;20029;-71
2023/03/25 06:43:48;;;;;;;14.77;8.90;;;;;;;;;;10374606;28;20068;-71
2023/03/25 06:48:48;;;;;;;16.08;7.43;;;;;;;;;;10369567;28;20030;-71
2023/03/25 06:53:48;;;;;;;13.93;6.67;;;;;;;;;;10370947;28;20032;-72
2023/03/25 06:58:49;;;;;;;18.93;8.77;;;;;;;;;;10377040;28;20387;-71
2023/03/25 07:03:49;;;;;;;14.43;6.00;;;;;;;;;;10375432;28;20037;-70
2023/03/25 07:08:50;;;;;;;14.20;7.07;;;;;;;;;;10373017;28;20396;-70
2023/03/25 07:13:53;;;;;;;14.65;8.07;;;;;;;;;;10356915;28;20033;-71
2023/03/25 07:18:55;;;;;;;16.90;8.75;;;;;;;;;;10376083;28;20041;-70
2023/03/25 07:23:55;;;;;;;18.38;9.07;;;;;;;;;;10372843;28;20489;-75
2023/03/25 07:28:56;;;;;;;23.70;7.97;;;;;;;;;;10375216;28;20104;-71
2023/03/25 07:33:58;;;;;;;22.45;8.77;;;;;;;;;;10377259;28;20152;-73
2023/03/25 07:39:00;;;;;;;18.85;8.20;;;;;;;;;;10375523;28;20026;-72
2023/03/25 07:44:00;;;;;;;14.70;9.23;;;;;;;;;;10372659;28;20040;-74
2023/03/25 07:49:01;;;;;;;14.10;8.23;;;;;;;;;;10371307;28;20038;-74
2023/03/25 07:54:01;;;;;;;20.77;8.27;;;;;;;;;;10370913;28;20056;-71
2023/03/25 07:59:02;;;;;;;17.10;9.10;;;;;;;;;;10369598;28;20037;-73
2023/03/25 08:04:02;;;;;;;16.08;9.48;;;;;;;;;;10370578;28;20299;-72
2023/03/25 08:09:03;;;;;;;20.93;8.97;;;;;;;;;;10372955;28;20057;-72
2023/03/25 08:14:03;;;;;;;15.68;8.73;;;;;;;;;;10356836;28;20095;-71
2023/03/25 08:19:03;;;;;;;16.60;7.72;;;;;;;;;;10375141;28;20052;-71
2023/03/25 08:24:04;;;;;;;12.30;7.70;;;;;;;;;;10373894;28;20026;-72
2023/03/25 08:29:06;;;;;;;15.17;8.40;;;;;;;;;;10372406;28;20033;-72
2023/03/25 08:34:06;;;;;;;12.93;7.53;;;;;;;;;;10373790;28;20073;-72
2023/03/25 08:39:10;;;;;;;21.73;8.93;;;;;;;;;;10372540;28;20030;-73
2023/03/25 08:44:10;;;;;;;19.10;9.35;;;;;;;;;;10355272;28;20409;-73
2023/03/25 08:49:11;;;;;;;22.83;9.70;;;;;;;;;;10373992;28;20033;-72
2023/03/25 08:54:11;;;;;;;18.70;8.38;;;;;;;;;;10372702;28;20423;-73
2023/03/25 08:59:11;;;;;;;17.30;9.27;;;;;;;;;;10370779;28;20091;-73
2023/03/25 09:04:12;;;;;;;21.63;9.15;;;;;;;;;;10372214;28;20103;-72
2023/03/25 09:09:12;;;;;;;21.27;9.77;;;;;;;;;;10372250;28;20021;-73
2023/03/25 09:14:12;;;;;;;17.67;8.40;;;;;;;;;;10372211;28;20049;-73
2023/03/25 09:19:13;;;;;;;21.93;7.67;;;;;;;;;;10372630;28;20068;-72
2023/03/25 09:24:13;;;;;;;18.53;8.17;;;;;;;;;;10371639;28;20033;-73
2023/03/25 09:29:13;;;;;;;22.38;9.05;;;;;;;;;;10372650;28;20039;-73
2023/03/25 09:34:14;;;;;;;17.77;7.45;;;;;;;;;;10373070;28;20440;-72
2023/03/25 09:39:14;;;;;;;26.27;8.03;;;;;;;;;;10372764;28;20781;-72
2023/03/25 09:44:15;;;;;;;28.17;8.25;;;;;;;;;;10351700;28;20284;-72
2023/03/25 09:49:17;;;;;;;15.90;7.00;;;;;;;;;;10371428;28;20041;-72
2023/03/25 09:54:26;;;;;;;15.68;5.65;;;;;;;;;;10372510;28;20041;-72
2023/03/25 09:59:38;;;;;;;16.83;6.85;;;;;;;;;;10371286;28;20045;-73
2023/03/25 10:05:02;;;;;;;24.08;6.85;;;;;;;;;;10370683;28;20030;-73
2023/03/25 10:10:08;;;;;;;14.70;6.82;;;;;;;;;;10368924;28;20047;-73
2023/03/25 10:15:17;;;;;;;18.97;6.60;;;;;;;;;;10371826;28;20033;-72
2023/03/25 10:20:21;;;;;;;17.13;7.50;;;;;;;;;;10369750;28;20274;-73
2023/03/25 10:25:25;;;;;;;14.25;5.13;;;;;;;;;;10368057;28;20034;-72
2023/03/25 10:30:29;;;;;;;15.35;4.85;;;;;;;;;;10358516;28;20033;-72
2023/03/25 10:35:33;;;;;;;9.68;4.10;;;;;;;;;;10378897;28;20132;-71
2023/03/25 10:40:38;;;;;;;7.80;3.47;;;;;;;;;;10392824;28;20469;-71
2023/03/25 10:45:39;;;;;;;6.53;2.78;;;;;;;;;;10378822;28;20019;-72
2023/03/25 10:50:41;;;;;;;11.73;3.83;;;;;;;;;;10358689;28;20479;-73
2023/03/25 10:55:42;;;;;;;7.40;3.15;;;;;;;;;;10360508;28;20021;-73
2023/03/25 11:00:42;;;;;;;6.78;2.65;;;;;;;;;;10377989;28;20085;-73
2023/03/25 11:05:42;;;;;;;9.18;2.92;;;;;;;;;;10378103;28;20032;-74
2023/03/25 11:10:46;;;;;;;5.53;2.88;;;;;;;;;;10377424;28;20057;-72
2023/03/25 11:15:47;;;;;;;9.98;3.47;;;;;;;;;;10378284;28;20175;-73
2023/03/25 11:20:55;;;;;;;7.82;3.10;;;;;;;;;;10377722;28;20021;-74
2023/03/25 11:26:00;;;;;;;12.93;3.50;;;;;;;;;;10376474;28;20029;-74
2023/03/25 11:31:12;;;;;;;8.55;3.53;;;;;;;;;;10373872;28;20040;-72
2023/03/25 11:36:25;;;;;;;5.47;2.53;;;;;;;;;;10375197;28;20408;-73
2023/03/25 11:41:32;;;;;;;7.03;3.67;;;;;;;;;;10375109;28;20751;-74
2023/03/25 11:46:34;;;;;;;8.48;3.35;;;;;;;;;;10374315;28;20125;-73
2023/03/25 11:51:34;;;;;;;10.52;2.80;;;;;;;;;;10375048;28;20052;-73
2023/03/25 11:56:37;;;;;;;10.82;3.25;;;;;;;;;;10374873;28;20041;-73
2023/03/25 12:01:46;;;;;;;5.13;3.17;;;;;;;;;;10357451;28;20519;-73
2023/03/25 12:06:53;;;;;;;6.57;2.90;;;;;;;;;;10349453;28;20037;-73
2023/03/25 12:12:17;;;;;;;3.67;2.65;;;;;;;;;;10372870;28;20098;-74
2023/03/25 12:17:44;;;;;;;10.18;3.25;;;;;;;;;;10369540;28;20084;-73
2023/03/25 12:23:02;;;;;;;5.10;3.37;;;;;;;;;;10338748;28;20077;-72
2023/03/25 12:28:21;;;;;;;3.80;2.53;;;;;;;;;;10373535;28;20044;-73
2023/03/25 12:33:31;;;;;;;11.07;3.00;;;;;;;;;;10373967;28;20163;-73
2023/03/25 12:38:47;;;;;;;6.07;2.97;;;;;;;;;;10372953;28;20085;-72
2023/03/25 12:43:47;;;;;;;5.60;3.05;;;;;;;;;;10374450;28;20126;-73
2023/03/25 12:48:53;;;;;;;8.30;3.00;;;;;;;;;;10373691;28;20349;-73
2023/03/25 12:54:06;;;;;;;4.30;3.30;;;;;;;;;;10373675;28;20033;-72
2023/03/25 12:59:13;;;;;;;7.10;3.22;;;;;;;;;;10373568;28;20033;-72
2023/03/25 13:04:16;;;;;;;5.33;3.13;;;;;;;;;;10373029;28;20029;-73
2023/03/25 13:09:28;;;;;;;7.85;4.20;;;;;;;;;;10373685;28;20400;-74
2023/03/25 13:14:36;;;;;;;6.93;3.20;;;;;;;;;;10373083;28;20030;-73
2023/03/25 13:19:41;;;;;;;5.40;2.50;;;;;;;;;;10370369;28;20022;-74
2023/03/25 13:24:54;;;;;;;5.45;2.67;;;;;;;;;;10372639;28;20119;-73
2023/03/25 13:29:56;;;;;;;6.22;3.22;;;;;;;;;;10373606;28;20037;-73
2023/03/25 13:35:02;;;;;;;11.85;2.97;;;;;;;;;;10372889;28;20048;-73
2023/03/25 13:40:09;;;;;;;10.65;3.45;;;;;;;;;;10370726;28;20179;-74
2023/03/25 13:45:17;;;;;;;5.63;3.40;;;;;;;;;;10372334;28;20040;-73
2023/03/25 13:50:17;;;;;;;;;;;;;;;;;;10371060;28;20037;-72
2023/03/25 13:55:20;;;;;;;12.95;3.90;;;;;;;;;;10371803;28;19913;-72
2023/03/25 14:00:41;;;;;;;10.23;3.20;;;;;;;;;;10372482;28;20348;-73
2023/03/25 14:05:44;;;;;;;8.93;3.80;;;;;;;;;;10372146;28;20037;-72
2023/03/25 14:10:44;;;;;;;6.18;3.78;;;;;;;;;;10376835;28;20083;-73
2023/03/25 14:16:00;;;;;;;8.45;3.78;;;;;;;;;;10380779;28;20577;-72
2023/03/25 14:21:19;;;;;;;6.30;4.25;;;;;;;;;;10379349;28;20897;-72
2023/03/25 14:26:20;;;;;;;7.28;3.80;;;;;;;;;;10359512;28;20038;-75
2023/03/25 14:31:21;;;;;;;8.90;4.72;;;;;;;;;;10379625;28;20033;-73
2023/03/25 14:36:27;;;;;;;6.15;4.68;;;;;;;;;;10378418;28;20037;-74
2023/03/25 14:41:46;;;;;;;12.23;6.60;;;;;;;;;;10360434;28;20044;-74
2023/03/25 14:46:47;;;;;;;11.73;6.00;;;;;;;;;;10378245;28;20025;-74
2023/03/25 14:51:49;;;;;;;12.30;6.63;;;;;;;;;;10379378;28;20041;-74
2023/03/25 14:57:04;;;;;;;10.57;5.78;;;;;;;;;;10377876;28;20523;-74
2023/03/25 15:02:21;;;;;;;7.03;4.60;;;;;;;;;;10359275;28;20107;-74
2023/03/25 15:08:03;;;;;;;9.85;4.65;;;;;;;;;;10379305;28;20689;-74
2023/03/25 15:13:18;;;;;;;8.77;5.50;;;;;;;;;;10306794;28;20091;-74
2023/03/25 15:18:34;;;;;;;9.82;5.15;;;;;;;;;;10377050;28;20433;-74
2023/03/25 15:23:44;;;;;;;10.80;5.78;;;;;;;;;;10377271;28;20042;-74
2023/03/25 15:28:53;;;;;;;10.88;6.50;;;;;;;;;;10357563;28;20037;-72
2023/03/25 15:34:03;;;;;;;8.02;4.88;;;;;;;;;;10378061;28;20072;-73
2023/03/25 15:39:16;;;;;;;7.93;4.40;;;;;;;;;;10377930;28;20097;-73
2023/03/25 15:44:22;;;;;;;6.45;4.85;;;;;;;;;;10377247;28;20116;-75
2023/03/25 15:49:25;;;;;;;6.88;5.07;;;;;;;;;;10376056;28;20041;-72
2023/03/25 15:54:31;;;;;;;8.15;4.53;;;;;;;;;;10375399;28;20041;-73
2023/03/25 15:59:42;;;;;;;12.00;5.28;;;;;;;;;;10376815;28;20140;-74
2023/03/25 16:04:46;;;;;;;7.80;5.28;;;;;;;;;;10375423;28;20025;-73
2023/03/25 16:09:47;;;;;;;9.98;4.97;;;;;;;;;;10374446;28;20034;-73
2023/03/25 16:14:48;;;;;;;10.63;6.65;;;;;;;;;;10374695;28;20516;-73
2023/03/25 16:19:52;;;;;;;16.10;6.72;;;;;;;;;;10378653;28;20026;-73
2023/03/25 16:24:54;;;;;;;6.38;4.60;;;;;;;;;;10374368;28;20048;-74
2023/03/25 16:29:55;;;;;;;8.55;4.32;;;;;;;;;;10374161;28;20120;-73
2023/03/25 16:34:56;;;;;;;15.02;5.05;;;;;;;;;;10374847;28;20046;-73
2023/03/25 16:39:57;;;;;;;10.40;4.70;;;;;;;;;;10389065;28;20105;-73
2023/03/25 16:44:57;;;;;;;10.48;5.30;;;;;;;;;;10374733;28;20033;-73
2023/03/25 16:50:13;;;;;;;10.40;5.03;;;;;;;-0.00;100.00;59854.53;10475221;28;20381;-73
2023/03/25 16:55:28;;;;;;;9.57;5.43;;;;;;;-0.00;100.00;59862.16;10437546;28;20032;-73
2023/03/25 17:00:42;;;;;;;9.77;5.25;;;;;;;-0.00;100.00;59860.63;10438032;28;20275;-74
2023/03/25 17:06:18;;;;;;;9.52;5.35;;;;;;;-0.00;100.00;59868.25;10435316;28;20013;-73
2023/03/25 17:11:20;;;;;;;15.90;7.00;;;;;;;-0.00;100.00;59878.94;10415009;28;20049;-72
2023/03/25 17:16:21;;;;;;;14.93;7.22;;;;;;;-0.00;100.00;59885.06;10437699;28;20043;-73
2023/03/25 17:21:26;;;;;;;10.63;6.20;;;;;;;-0.00;100.00;59888.09;10435977;28;20027;-72
2023/03/25 17:26:32;;;;;;;20.70;10.48;;;;;;;-0.00;100.00;59885.06;10430205;28;20102;-73
2023/03/25 17:31:36;;;;;;;13.77;7.53;;;;;;;-0.00;100.00;59892.69;10438031;28;20459;-74
2023/03/25 17:36:44;;;;;;;14.50;8.25;;;;;;;-0.00;100.00;59903.34;10441344;28;20124;-76
2023/03/25 17:41:45;;;;;;;14.18;7.15;;;;;;;-0.00;100.00;59042.03;10436547;28;20033;-72
2023/03/25 17:46:46;;;;;;;16.58;7.22;;;;;;;-0.00;100.00;59906.41;10439610;28;20115;-70
2023/03/25 17:51:46;;;;;;;21.30;7.85;;;;;;;0.00;100.00;59042.03;10439991;28;20021;-72
2023/03/25 17:56:47;;;;;;;21.13;8.70;;;;;;;0.00;100.00;59042.03;10433815;28;20029;-73
2023/03/25 18:01:48;;;;;;;17.85;8.88;;;;;;;0.00;100.00;59042.03;10408471;28;20508;-73
2023/03/25 18:06:50;;;;;;;24.85;6.95;;;;;;;0.00;100.00;59042.03;10405076;28;20049;-75
2023/03/25 18:11:54;;;;;;;24.60;9.80;;;;;;;0.00;100.00;59042.03;10407367;28;20388;-74
2023/03/25 18:16:55;;;;;;;23.88;8.93;;;;;;;0.00;100.00;59042.03;10408439;28;20083;-74
2023/03/25 18:21:56;;;;;;;21.73;7.43;;;;;;;0.00;100.00;59042.03;10403727;28;20013;-74
2023/03/25 18:26:56;;;;;;;16.98;7.80;;;;;;;0.00;100.00;59042.03;10408619;28;20408;-73
2023/03/25 18:31:57;;;;;;;16.05;9.68;;;;;;;0.00;100.00;59042.03;10411145;28;20025;-72
2023/03/25 18:36:58;;;;;;;22.27;8.90;;;;;;;0.00;100.00;59042.03;10403292;28;20031;-73
2023/03/25 18:41:58;;;;;;;19.05;9.57;;;;;;;0.00;100.00;59042.03;10403848;28;20048;-72
2023/03/25 18:46:59;;;;;;;14.60;9.15;;;;;;;0.00;100.00;59042.03;10411424;28;20057;-72
2023/03/25 18:52:02;;;;;;;10.70;6.50;;;;;;;0.00;100.00;59042.03;10411790;28;20468;-70
2023/03/25 18:57:03;;;;;;;13.68;8.05;;;;;;;0.00;100.00;59042.03;10405619;28;20364;-72
2023/03/25 19:02:03;;;;;;;8.10;5.60;;;;;;;0.00;100.00;59042.03;10411323;28;20381;-69
2023/03/25 19:07:04;;;;;;;14.25;9.45;;;;;;;0.00;100.00;59042.03;10389886;28;20480;-74
2023/03/25 19:12:04;;;;;;;21.35;10.63;;;;;;;0.00;100.00;59042.03;10383237;28;20422;-72
2023/03/25 19:17:05;;;;;;;20.92;10.50;;;;;;;0.00;100.00;59042.03;10390024;28;21339;-76
2023/03/25 19:22:08;;;;;;;23.95;12.18;;;;;;;0.00;100.00;59042.03;10382373;28;20029;-70
2023/03/25 19:27:09;;;;;;;31.77;13.73;;;;;;;0.00;100.00;59042.03;10390786;28;20430;-75
2023/03/25 19:32:10;;;;;;;31.38;12.80;;;;;;;0.00;100.00;59042.03;10377508;28;20037;-71
2023/03/25 19:37:17;;;;;;;15.10;8.98;;;;;;;0.00;100.00;59042.03;10382719;28;20384;-72
2023/03/25 19:42:18;;;;;;;13.57;7.63;;;;;;;0.00;100.00;59042.03;10389847;28;20919;-70
2023/03/25 19:47:18;;;;;;;10.27;6.53;;;;;;;0.00;100.00;59042.03;10379168;28;20516;-71
2023/03/25 19:52:19;;;;;;;17.97;8.40;;;;;;;0.00;100.00;59042.03;10379215;28;20287;-71
2023/03/25 19:57:19;;;;;;;14.25;7.97;;;;;;;0.00;100.00;59042.03;10373269;28;20273;-71
2023/03/25 20:02:20;;;;;;;18.02;8.30;;;;;;;0.00;100.00;59042.03;10376226;28;20022;-71
2023/03/25 20:07:21;;;;;;;17.88;7.15;;;;;;;0.00;100.00;59042.03;10388770;28;20044;-73
2023/03/25 20:12:21;;;;;;;11.32;6.57;;;;;;;0.00;100.00;59042.03;10382655;28;20079;-72
2023/03/25 20:17:23;;;;;;;9.48;5.63;;;;;;;0.00;100.00;59042.03;10380501;28;20033;-72
2023/03/25 20:22:24;;;;;;;14.15;7.80;;;;;;;0.00;100.00;59042.03;10388511;28;20040;-71
2023/03/25 20:27:25;;;;;;;14.55;8.43;;;;;;;0.00;100.00;59042.03;10388527;28;20028;-71
2023/03/25 20:32:26;;;;;;;18.10;8.43;;;;;;;0.00;100.00;59042.03;10381967;28;20079;-71
2023/03/25 20:37:26;;;;;;;17.30;10.05;;;;;;;0.00;100.00;59042.03;10374871;28;20084;-71
2023/03/25 20:42:26;;;;;;;22.20;12.02;;;;;;;0.00;100.00;59042.03;10374119;28;20419;-71
2023/03/25 20:47:27;;;;;;;25.67;11.13;;;;;;;0.00;100.00;59042.03;10376034;28;20049;-71
2023/03/25 20:52:27;;;;;;;32.35;12.88;;;;;;;0.00;100.00;59042.03;10376001;28;20438;-71
2023/03/25 20:57:28;;;;;;;34.33;14.18;;;;;;;0.00;100.00;59042.03;10380599;28;20121;-70
2023/03/25 21:02:28;;;;;;;37.97;17.55;;;;;;;0.00;100.00;59042.03;10385249;28;20040;-72
2023/03/25 21:07:30;;;;;;;29.52;16.08;;;;;;;0.00;100.00;59042.03;10383859;28;20169;-71
2023/03/25 21:12:31;;;;;;;44.55;20.10;;;;;;;0.00;100.00;59042.03;10374487;28;20496;-72
2023/03/25 21:17:31;;;;;;;43.95;20.20;;;;;;;0.00;100.00;59042.03;10374988;28;20034;-71
2023/03/25 21:22:32;;;;;;;46.15;21.38;;;;;;;0.00;100.00;59042.03;10375355;28;20037;-70
2023/03/25 21:27:32;;;;;;;46.63;20.30;;;;;;;0.00;100.00;59042.03;10372577;28;20029;-70
2023/03/25 21:32:33;;;;;;;42.20;22.55;;;;;;;0.00;100.00;59042.03;10373920;28;20034;-71
2023/03/25 21:37:37;;;;;;;33.03;17.10;;;;;;;0.00;100.00;59042.03;10386444;28;20044;-71
2023/03/25 21:42:44;;;;;;;34.90;17.80;;;;;;;0.00;100.00;59042.03;10387837;28;20020;-72
2023/03/25 21:47:51;;;;;;;23.10;13.10;;;;;;;0.00;100.00;59042.03;10377530;28;20038;-72
2023/03/25 21:52:51;;;;;;;23.92;10.82;;;;;;;0.00;100.00;59042.03;10382866;28;20029;-72
2023/03/25 21:57:52;;;;;;;26.87;11.17;;;;;;;0.00;100.00;59042.03;10377243;28;20025;-72
2023/03/25 22:02:57;;;;;;;21.30;9.93;;;;;;;0.00;100.00;59042.03;10379572;28;20276;-72
2023/03/25 22:07:57;;;;;;;21.10;9.50;;;;;;;0.00;100.00;59042.03;10390657;28;20299;-71
2023/03/25 22:12:58;;;;;;;15.30;8.32;;;;;;;0.00;100.00;59042.03;10388996;28;20084;-72
2023/03/25 22:17:59;;;;;;;17.60;8.40;;;;;;;0.00;100.00;59042.03;10377202;28;20027;-72
2023/03/25 22:22:59;;;;;;;23.15;7.80;;;;;;;0.00;100.00;59042.03;10383470;28;20025;-71
2023/03/25 22:28:00;;;;;;;9.02;5.80;;;;;;;0.00;100.00;59042.03;10379394;28;20721;-72
2023/03/25 22:33:00;;;;;;;16.33;6.22;;;;;;;0.00;100.00;59042.03;10367516;28;20457;-70
2023/03/25 22:38:01;;;;;;;15.23;6.50;;;;;;;0.00;100.00;59042.03;10383660;28;20021;-69
2023/03/25 22:43:01;;;;;;;12.10;5.20;;;;;;;0.00;100.00;59042.03;10384172;28;20280;-71
2023/03/25 22:48:02;;;;;;;8.85;5.20;;;;;;;0.00;100.00;59042.03;10383460;28;20045;-69
2023/03/25 22:53:02;;;;;;;8.38;4.35;;;;;;;0.00;100.00;59042.03;10384368;28;20500;-70
2023/03/25 22:58:03;;;;;;;13.80;5.95;;;;;;;0.00;100.00;59042.03;10382880;28;20492;-69
2023/03/25 23:03:03;;;;;;;8.33;4.13;;;;;;;0.00;100.00;59042.03;10383220;28;20021;-69
2023/03/25 23:08:05;;;;;;;7.25;3.90;;;;;;;0.00;100.00;59042.03;10359721;28;20307;-69
2023/03/25 23:13:06;;;;;;;8.88;3.28;;;;;;;0.00;100.00;59042.03;10382781;28;20333;-69
2023/03/25 23:18:07;;;;;;;5.78;2.58;;;;;;;0.00;100.00;59042.03;10382757;28;20052;-70
2023/03/25 23:23:07;;;;;;;11.00;2.58;;;;;;;0.00;100.00;59042.03;10360043;28;20413;-69
2023/03/25 23:28:09;;;;;;;5.57;2.20;;;;;;;0.00;100.00;59042.03;10381719;28;20053;-69
2023/03/25 23:33:09;;;;;;;2.00;1.40;;;;;;;0.00;100.00;59042.03;10356995;28;20356;-71
2023/03/25 23:38:10;;;;;;;1.20;1.10;;;;;;;0.00;100.00;59042.03;10345163;28;20020;-69
2023/03/25 23:43:10;;;;;;;2.10;1.20;;;;;;;0.00;100.00;59042.03;10350514;28;20049;-70
2023/03/25 23:48:11;;;;;;;0.90;0.70;;;;;;;0.00;100.00;59042.03;10363059;28;20303;-69
2023/03/25 23:53:11;;;;;;;0.65;0.52;;;;;;;0.00;100.00;59042.03;10382122;28;20483;-69
2023/03/25 23:58:12;;;;;;;0.65;0.40;;;;;;;0.00;100.00;59042.03;10381265;28;20441;-70
